Airfield :
LOGIN :

Register | Disclaimer

   EN    FR    IT 

 










Legend :    VFR   Marginal VFR   IFR   Intensive IFR   Very Intensive IFR
Visi :
Ceiling :
>= 8 km
>= 3000ft
5 to 8 km
1000 to 3000 ft
1500m to 5 km
500 to 1000 ft
800 to 1500m
200 to 500 ft
< 800m
< 200 ft
Symbols :   Thunderstorms  Fog  Heavy snow  Heavy precipitations  Wind > 20 kt
SIGMETs :     Misc.  Thunderstorms  Icing  Turbulence  Mountain Waves  Volcanic Ashes







- Airport Elevation : 1682 ft
- IATA code : VIT


LEVT - Vitoria Gasteiz

CURRENT METAR :
  • 201730Z VRB01KT 9999 -RA FEW010 SCT018 BKN028 03/02 Q1002

EXPIRED METARs :
  • 201700Z VRB02KT 9999 FEW010 BKN028 03/02 Q1002
  • 201630Z 29003KT 260V330 9999 -RA FEW008 SCT018 BKN030 03/02 Q1002
  • 201600Z 01003KT 8000 -RA SCT008 BKN015 03/02 Q1001
  • 201530Z 36003KT 330V040 8000 -RA FEW008 BKN015 03/02 Q1001
  • 201500Z 34003KT 8000 -RA FEW008 BKN013 03/02 Q1001
  • 201430Z 36004KT 320V020 8000 -RA FEW008 BKN013 03/02 Q1000

TAF TAF LEVT
Valid from the 20 at 18:00 until the 21 at 18:00 UTC


201700Z 2018/2118 VRB05KT 9999 SCT010 BKN020 TX12/2114Z TN02/2105Z
TEMPO 2018/2109 BKN010
PROB30
TEMPO 2018/2108 3000 RA SHRA BKN010 SCT030TCU
PROB40
TEMPO 2100/2108 0800 -RADZ BCFG BKN010
TEMPO 2108/2118 18010KT
No reported NOTAMs for that airfield.



MET'MAP, your aeronautical weather chart ! - Copyright ORBIFLY December 2007 - Disclaimer

ORBIFLY MET'MAP TEAM :

Programming & Development : Alexandra Zaïnal
Concept & Development : Baudouin d'Aumeries
Co-Development & Prog : Marc-Olivier Méhu
Technical & hardware support : Manuel Goepfert

Contact : metmap@orbifly.com




SOURCES & CREDITS :

   NOAA